Terminal Aerodrome Forecast
Issued by NWS Pocatello, ID

Home | Current Version | Previous Version | Text Only | Print | Product List | Glossary On
Versions: 1 2 3 4 5 6 7 8 9 10 11 12 13 14 15 16 17
000
FTUS45 KPIH 010500
TAFPIH
TAF
KPIH 010520Z 0106/0206 20015KT P6SM VCSH FEW060 SCT150
     FM010700 20011KT P6SM -RA SCT015 BKN030 OVC050
     FM011300 20012KT P6SM VCSH SCT020 BKN040 BKN080
     FM011700 27014G20KT P6SM SCT080 BKN120=

USA.gov is the U.S. government's official web portal to all federal, state and local government web resources and services.